Bert Mooney Airport Butte US
ICAO: KBTM
IATA: BTM
Category: Medium
Scheduled Services: Yes

Elevation: 5550 ft
TransAlt. 18000 ft.

Airport Communications:
ASOS:135.175
SALT LAKE CITY CNTR:132.4
GREAT FALLS RDO:122.2
CTAF/UNICOM:123

KBTM Zoom In..

If you have problems with the map follow the link
https://www.worldairports.se/pages/airport.php?
ICAO=KBTM

Runways:

(A) RW 12 length 5100 ft width 75 ft
---- / hdg 113

(B) RW 15 length 9001 ft width 150 ft
ILS 110.90 / hdg 151

(C) RW 30 length 5100 ft width 75 ft
---- / hdg 293

(D) RW 33 length 9001 ft width 150 ft
---- / hdg 331

Location; KBTM
Day. 20 / Time. 20.53 Zulu
* Altimeter: 29.54
* Temperature: -05° c. -23°f.
* Wind from: 290° Speed 08 kn.
Dewpoint: -11° c.
Visibility: 10 Statute Miles.
Clouds: Scattered 4700 ft.
Clouds: Scattered 5500 ft.
Clouds: Broken 7000 ft.

KBTM 202053Z AUTO 29008KT 10SM SCT047 SCT055 BKN070 M05/M11 A2954 RMK AO2 SLP066 T10501106 58002


Wind From 290°
Speed 08 kn.

 
 
jpsmedia.com for Web Design worldairports.se 2019   terms of use